Terminal Aerodrome Forecast
Issued by NWS Shreveport, LA

Home | Current Version | Previous Version | Text Only | Print | Product List | Glossary On
Versions: 1 2 3 4 5 6 7 8 9 10 11 12 13 14 15 16 17 18
000
FTUS44 KSHV 262337
TAFGGG
TAF
KGGG 262337Z 2700/2724 15010KT P6SM SCT050 BKN100
      TEMPO 2700/2703 15016G285KT -SHRA OVC040
     FM270900 16010KT P6SM BKN015
     FM271500 16012G20KT P6SM VCTS BKN025CB
      TEMPO 2718/2722 16018G30KT 2SM TSRA BR OVC010CB=

USA.gov is the U.S. government's official web portal to all federal, state and local government web resources and services.